sensor_id;sensor_type;location;lat;lon;timestamp;pressure;altitude;pressure_sealevel;temperature;humidity
49044;BME280;34860;48.066;14.124;2022-10-17T00:00:08;97355.88;;;14.02;76.28
49044;BME280;34860;48.066;14.124;2022-10-17T00:02:59;97355.88;;;14.02;76.16
49044;BME280;34860;48.066;14.124;2022-10-17T00:05:48;97347.03;;;14.04;76.32
49044;BME280;34860;48.066;14.124;2022-10-17T00:08:38;97348.63;;;14.05;76.27
49044;BME280;34860;48.066;14.124;2022-10-17T00:11:29;97351.75;;;14.07;76.18
49044;BME280;34860;48.066;14.124;2022-10-17T00:14:17;97341.56;;;14.00;76.13
49044;BME280;34860;48.066;14.124;2022-10-17T00:17:06;97346.56;;;13.92;76.16
49044;BME280;34860;48.066;14.124;2022-10-17T00:19:57;97347.75;;;13.78;76.28
49044;BME280;34860;48.066;14.124;2022-10-17T00:22:46;97336.91;;;13.68;76.57
49044;BME280;34860;48.066;14.124;2022-10-17T00:25:35;97345.34;;;13.64;76.52
49044;BME280;34860;48.066;14.124;2022-10-17T00:28:25;97337.97;;;13.57;76.58
49044;BME280;34860;48.066;14.124;2022-10-17T00:31:16;97338.94;;;13.51;76.61
49044;BME280;34860;48.066;14.124;2022-10-17T00:34:05;97334.94;;;13.52;76.64
49044;BME280;34860;48.066;14.124;2022-10-17T00:36:54;97340.09;;;13.53;76.42
49044;BME280;34860;48.066;14.124;2022-10-17T00:39:43;97344.44;;;13.54;76.36
49044;BME280;34860;48.066;14.124;2022-10-17T00:42:32;97343.31;;;13.52;76.53
49044;BME280;34860;48.066;14.124;2022-10-17T00:45:24;97342.19;;;13.49;76.63
49044;BME280;34860;48.066;14.124;2022-10-17T00:48:14;97343.16;;;13.42;76.74
49044;BME280;34860;48.066;14.124;2022-10-17T00:51:05;97334.88;;;13.39;76.59
49044;BME280;34860;48.066;14.124;2022-10-17T00:53:54;97339.56;;;13.25;76.86
49044;BME280;34860;48.066;14.124;2022-10-17T00:56:44;97331.06;;;13.16;77.26
49044;BME280;34860;48.066;14.124;2022-10-17T00:59:37;97331.72;;;13.20;77.01
49044;BME280;34860;48.066;14.124;2022-10-17T01:02:28;97328.84;;;13.24;77.00
49044;BME280;34860;48.066;14.124;2022-10-17T01:05:18;97330.53;;;13.21;76.72
49044;BME280;34860;48.066;14.124;2022-10-17T01:08:08;97326.25;;;13.17;76.74
49044;BME280;34860;48.066;14.124;2022-10-17T01:11:02;97330.44;;;13.08;76.67
49044;BME280;34860;48.066;14.124;2022-10-17T01:13:57;97326.09;;;13.07;77.23
49044;BME280;34860;48.066;14.124;2022-10-17T01:16:52;97323.56;;;12.97;77.15
49044;BME280;34860;48.066;14.124;2022-10-17T01:20:13;97325.13;;;12.98;77.35
49044;BME280;34860;48.066;14.124;2022-10-17T01:23:23;97320.44;;;12.95;77.38
49044;BME280;34860;48.066;14.124;2022-10-17T01:26:19;97328.69;;;12.98;77.18
49044;BME280;34860;48.066;14.124;2022-10-17T01:29:30;97321.72;;;12.90;77.39
49044;BME280;34860;48.066;14.124;2022-10-17T01:32:28;97320.94;;;12.73;77.74
49044;BME280;34860;48.066;14.124;2022-10-17T01:35:26;97318.78;;;12.64;77.97
49044;BME280;34860;48.066;14.124;2022-10-17T01:38:20;97323.91;;;12.49;78.16
49044;BME280;34860;48.066;14.124;2022-10-17T01:41:18;97322.75;;;12.47;77.93
49044;BME280;34860;48.066;14.124;2022-10-17T01:44:18;97319.53;;;12.32;78.15
49044;BME280;34860;48.066;14.124;2022-10-17T01:47:12;97313.31;;;12.24;78.28
49044;BME280;34860;48.066;14.124;2022-10-17T01:50:09;97331.59;;;12.25;78.19
49044;BME280;34860;48.066;14.124;2022-10-17T01:53:02;97323.06;;;12.16;78.22
49044;BME280;34860;48.066;14.124;2022-10-17T01:55:55;97324.91;;;12.23;77.95
49044;BME280;34860;48.066;14.124;2022-10-17T01:58:50;97321.41;;;12.18;77.72
49044;BME280;34860;48.066;14.124;2022-10-17T02:01:41;97321.28;;;12.06;77.96
49044;BME280;34860;48.066;14.124;2022-10-17T02:04:31;97328.84;;;12.05;78.00
49044;BME280;34860;48.066;14.124;2022-10-17T02:07:24;97324.91;;;12.03;77.82
49044;BME280;34860;48.066;14.124;2022-10-17T02:10:20;97326.22;;;11.98;77.71
49044;BME280;34860;48.066;14.124;2022-10-17T02:13:16;97330.66;;;11.95;77.90
49044;BME280;34860;48.066;14.124;2022-10-17T02:16:21;97325.16;;;11.92;77.85
49044;BME280;34860;48.066;14.124;2022-10-17T02:19:26;97337.47;;;11.91;77.85
49044;BME280;34860;48.066;14.124;2022-10-17T02:22:26;97333.97;;;11.87;77.79
49044;BME280;34860;48.066;14.124;2022-10-17T02:25:22;97331.91;;;11.91;77.68
49044;BME280;34860;48.066;14.124;2022-10-17T02:28:18;97332.63;;;11.95;77.42
49044;BME280;34860;48.066;14.124;2022-10-17T02:31:12;97325.06;;;11.75;77.65
49044;BME280;34860;48.066;14.124;2022-10-17T02:34:07;97335.69;;;11.60;78.01
49044;BME280;34860;48.066;14.124;2022-10-17T02:36:58;97345.75;;;11.54;78.03
49044;BME280;34860;48.066;14.124;2022-10-17T02:39:50;97339.09;;;11.48;77.96
49044;BME280;34860;48.066;14.124;2022-10-17T02:42:41;97338.41;;;11.44;78.04
49044;BME280;34860;48.066;14.124;2022-10-17T02:45:31;97343.56;;;11.45;77.86
49044;BME280;34860;48.066;14.124;2022-10-17T02:48:27;97350.66;;;11.47;78.19
49044;BME280;34860;48.066;14.124;2022-10-17T02:51:28;97352.53;;;11.53;78.00
49044;BME280;34860;48.066;14.124;2022-10-17T02:54:30;97360.09;;;11.53;77.64
49044;BME280;34860;48.066;14.124;2022-10-17T02:57:26;97355.31;;;11.53;77.63
49044;BME280;34860;48.066;14.124;2022-10-17T03:00:17;97359.59;;;11.58;77.63
49044;BME280;34860;48.066;14.124;2022-10-17T03:03:18;97354.25;;;11.67;77.46
49044;BME280;34860;48.066;14.124;2022-10-17T03:06:07;97356.53;;;11.72;77.46
49044;BME280;34860;48.066;14.124;2022-10-17T03:08:56;97368.53;;;11.69;77.38
49044;BME280;34860;48.066;14.124;2022-10-17T03:11:46;97366.56;;;11.70;77.40
49044;BME280;34860;48.066;14.124;2022-10-17T03:14:36;97362.91;;;11.73;77.70
49044;BME280;34860;48.066;14.124;2022-10-17T03:17:25;97360.19;;;11.69;77.61
49044;BME280;34860;48.066;14.124;2022-10-17T03:20:14;97369.88;;;11.61;77.70
49044;BME280;34860;48.066;14.124;2022-10-17T03:23:04;97369.66;;;11.52;77.86
49044;BME280;34860;48.066;14.124;2022-10-17T03:25:53;97370.66;;;11.41;77.86
49044;BME280;34860;48.066;14.124;2022-10-17T03:28:42;97375.47;;;11.37;77.81
49044;BME280;34860;48.066;14.124;2022-10-17T03:31:32;97373.97;;;11.33;78.08
49044;BME280;34860;48.066;14.124;2022-10-17T03:34:22;97376.75;;;11.33;77.98
49044;BME280;34860;48.066;14.124;2022-10-17T03:37:11;97382.28;;;11.36;77.91
49044;BME280;34860;48.066;14.124;2022-10-17T03:40:01;97381.91;;;11.34;77.78
49044;BME280;34860;48.066;14.124;2022-10-17T03:42:50;97378.69;;;11.36;77.77
49044;BME280;34860;48.066;14.124;2022-10-17T03:45:39;97377.97;;;11.32;77.78
49044;BME280;34860;48.066;14.124;2022-10-17T03:48:30;97374.09;;;11.25;77.83
49044;BME280;34860;48.066;14.124;2022-10-17T03:51:19;97379.34;;;11.20;77.88
49044;BME280;34860;48.066;14.124;2022-10-17T03:54:12;97373.78;;;11.20;77.93
49044;BME280;34860;48.066;14.124;2022-10-17T03:57:01;97385.34;;;11.18;78.29
49044;BME280;34860;48.066;14.124;2022-10-17T03:59:50;97377.84;;;11.15;77.96
49044;BME280;34860;48.066;14.124;2022-10-17T04:02:40;97378.72;;;11.12;78.04
49044;BME280;34860;48.066;14.124;2022-10-17T04:05:38;97378.28;;;11.14;77.90
49044;BME280;34860;48.066;14.124;2022-10-17T04:08:27;97382.22;;;11.16;77.82
49044;BME280;34860;48.066;14.124;2022-10-17T04:11:25;97381.59;;;11.05;77.98
49044;BME280;34860;48.066;14.124;2022-10-17T04:14:18;97382.88;;;11.00;78.02
49044;BME280;34860;48.066;14.124;2022-10-17T04:17:07;97390.50;;;10.96;78.12
49044;BME280;34860;48.066;14.124;2022-10-17T04:19:57;97384.97;;;10.93;78.39
49044;BME280;34860;48.066;14.124;2022-10-17T04:22:47;97391.13;;;11.07;78.26
49044;BME280;34860;48.066;14.124;2022-10-17T04:25:37;97391.41;;;11.13;77.75
49044;BME280;34860;48.066;14.124;2022-10-17T04:28:26;97396.25;;;11.09;77.84
49044;BME280;34860;48.066;14.124;2022-10-17T04:31:15;97403.50;;;11.03;77.90
49044;BME280;34860;48.066;14.124;2022-10-17T04:34:25;97399.72;;;10.89;78.09
49044;BME280;34860;48.066;14.124;2022-10-17T04:37:14;97396.72;;;10.80;78.21
49044;BME280;34860;48.066;14.124;2022-10-17T04:40:07;97394.09;;;10.69;78.38
49044;BME280;34860;48.066;14.124;2022-10-17T04:42:56;97408.81;;;10.66;78.38
49044;BME280;34860;48.066;14.124;2022-10-17T04:45:52;97405.63;;;10.68;78.21
49044;BME280;34860;48.066;14.124;2022-10-17T04:48:41;97400.53;;;10.63;78.05
49044;BME280;34860;48.066;14.124;2022-10-17T04:51:31;97401.38;;;10.60;78.25
49044;BME280;34860;48.066;14.124;2022-10-17T04:54:33;97399.78;;;10.59;78.20
49044;BME280;34860;48.066;14.124;2022-10-17T04:57:28;97406.09;;;10.63;78.04
49044;BME280;34860;48.066;14.124;2022-10-17T05:00:26;97410.06;;;10.62;78.07
49044;BME280;34860;48.066;14.124;2022-10-17T05:03:29;97411.66;;;10.63;77.89
49044;BME280;34860;48.066;14.124;2022-10-17T05:06:19;97413.28;;;10.60;77.88
49044;BME280;34860;48.066;14.124;2022-10-17T05:09:27;97419.38;;;10.51;77.86
49044;BME280;34860;48.066;14.124;2022-10-17T05:12:16;97423.34;;;10.50;78.06
49044;BME280;34860;48.066;14.124;2022-10-17T05:15:09;97416.59;;;10.51;78.03
49044;BME280;34860;48.066;14.124;2022-10-17T05:17:57;97421.75;;;10.49;77.72
49044;BME280;34860;48.066;14.124;2022-10-17T05:20:48;97416.66;;;10.44;77.86
49044;BME280;34860;48.066;14.124;2022-10-17T05:23:37;97426.19;;;10.43;77.94
49044;BME280;34860;48.066;14.124;2022-10-17T05:26:26;97432.16;;;10.45;77.95
49044;BME280;34860;48.066;14.124;2022-10-17T05:29:15;97435.34;;;10.44;78.01
49044;BME280;34860;48.066;14.124;2022-10-17T05:32:10;97427.78;;;10.44;77.85
49044;BME280;34860;48.066;14.124;2022-10-17T05:35:00;97429.78;;;10.44;77.95
49044;BME280;34860;48.066;14.124;2022-10-17T05:37:50;97435.56;;;10.57;77.80
49044;BME280;34860;48.066;14.124;2022-10-17T05:40:40;97432.19;;;10.69;77.48
49044;BME280;34860;48.066;14.124;2022-10-17T05:43:29;97436.06;;;10.79;77.25
49044;BME280;34860;48.066;14.124;2022-10-17T05:46:19;97435.72;;;10.73;77.47
49044;BME280;34860;48.066;14.124;2022-10-17T05:49:10;97440.81;;;10.78;77.52
49044;BME280;34860;48.066;14.124;2022-10-17T05:52:00;97446.69;;;10.84;77.69
49044;BME280;34860;48.066;14.124;2022-10-17T05:54:55;97453.38;;;10.90;77.68
49044;BME280;34860;48.066;14.124;2022-10-17T05:57:44;97455.66;;;10.95;77.55
49044;BME280;34860;48.066;14.124;2022-10-17T06:00:36;97457.06;;;11.07;77.31
49044;BME280;34860;48.066;14.124;2022-10-17T06:03:25;97461.69;;;11.17;77.23
49044;BME280;34860;48.066;14.124;2022-10-17T06:06:16;97467.56;;;11.23;77.15
49044;BME280;34860;48.066;14.124;2022-10-17T06:09:07;97462.41;;;11.21;77.04
49044;BME280;34860;48.066;14.124;2022-10-17T06:11:59;97468.41;;;11.20;77.05
49044;BME280;34860;48.066;14.124;2022-10-17T06:14:48;97467.69;;;11.16;77.18
49044;BME280;34860;48.066;14.124;2022-10-17T06:17:37;97471.19;;;11.20;77.20
49044;BME280;34860;48.066;14.124;2022-10-17T06:20:27;97477.13;;;11.22;77.18
49044;BME280;34860;48.066;14.124;2022-10-17T06:23:18;97475.47;;;11.24;77.22
49044;BME280;34860;48.066;14.124;2022-10-17T06:26:36;97482.13;;;11.31;77.25
49044;BME280;34860;48.066;14.124;2022-10-17T06:29:27;97476.94;;;11.33;77.08
49044;BME280;34860;48.066;14.124;2022-10-17T06:32:15;97480.78;;;11.42;76.85
49044;BME280;34860;48.066;14.124;2022-10-17T06:35:06;97490.69;;;11.43;76.83
49044;BME280;34860;48.066;14.124;2022-10-17T06:37:56;97494.56;;;11.50;76.99
49044;BME280;34860;48.066;14.124;2022-10-17T06:40:46;97489.47;;;11.44;77.07
49044;BME280;34860;48.066;14.124;2022-10-17T06:43:36;97489.13;;;11.42;77.18
49044;BME280;34860;48.066;14.124;2022-10-17T06:46:42;97501.31;;;11.49;77.32
49044;BME280;34860;48.066;14.124;2022-10-17T06:49:34;97499.22;;;11.56;77.13
49044;BME280;34860;48.066;14.124;2022-10-17T06:52:38;97504.63;;;11.67;77.09
49044;BME280;34860;48.066;14.124;2022-10-17T06:55:50;97506.13;;;11.72;76.87
49044;BME280;34860;48.066;14.124;2022-10-17T06:58:51;97507.75;;;11.69;76.78
49044;BME280;34860;48.066;14.124;2022-10-17T07:01:44;97512.53;;;11.69;76.99
49044;BME280;34860;48.066;14.124;2022-10-17T07:04:33;97512.44;;;11.76;76.81
49044;BME280;34860;48.066;14.124;2022-10-17T07:07:22;97516.66;;;11.84;76.76
49044;BME280;34860;48.066;14.124;2022-10-17T07:10:12;97502.84;;;11.77;76.78
49044;BME280;34860;48.066;14.124;2022-10-17T07:13:02;97509.94;;;11.81;77.02
49044;BME280;34860;48.066;14.124;2022-10-17T07:15:52;97508.75;;;11.82;76.78
49044;BME280;34860;48.066;14.124;2022-10-17T07:18:48;97503.53;;;11.85;76.72
49044;BME280;34860;48.066;14.124;2022-10-17T07:21:38;97511.09;;;11.84;76.74
49044;BME280;34860;48.066;14.124;2022-10-17T07:24:29;97513.03;;;11.87;76.63
49044;BME280;34860;48.066;14.124;2022-10-17T07:27:30;97511.38;;;11.90;76.56
49044;BME280;34860;48.066;14.124;2022-10-17T07:30:21;97526.06;;;11.94;76.56
49044;BME280;34860;48.066;14.124;2022-10-17T07:33:21;97518.50;;;11.94;76.63
49044;BME280;34860;48.066;14.124;2022-10-17T07:36:10;97524.38;;;12.00;76.45
49044;BME280;34860;48.066;14.124;2022-10-17T07:38:59;97517.53;;;12.05;76.44
49044;BME280;34860;48.066;14.124;2022-10-17T07:41:49;97518.22;;;12.09;76.49
49044;BME280;34860;48.066;14.124;2022-10-17T07:44:38;97520.94;;;12.12;76.46
49044;BME280;34860;48.066;14.124;2022-10-17T07:47:29;97526.47;;;12.16;76.44
49044;BME280;34860;48.066;14.124;2022-10-17T07:50:23;97535.03;;;12.25;76.07
49044;BME280;34860;48.066;14.124;2022-10-17T07:53:12;97537.78;;;12.29;76.20
49044;BME280;34860;48.066;14.124;2022-10-17T07:56:04;97539.41;;;12.26;76.51
49044;BME280;34860;48.066;14.124;2022-10-17T07:58:53;97540.16;;;12.30;76.29
49044;BME280;34860;48.066;14.124;2022-10-17T08:01:47;97535.28;;;12.34;76.51
49044;BME280;34860;48.066;14.124;2022-10-17T08:04:37;97542.34;;;12.39;76.33
49044;BME280;34860;48.066;14.124;2022-10-17T08:07:26;97538.63;;;12.46;76.45
49044;BME280;34860;48.066;14.124;2022-10-17T08:10:15;97552.03;;;12.54;76.21
49044;BME280;34860;48.066;14.124;2022-10-17T08:13:04;97545.16;;;12.59;76.21
49044;BME280;34860;48.066;14.124;2022-10-17T08:15:57;97546.66;;;12.64;76.31
49044;BME280;34860;48.066;14.124;2022-10-17T08:18:45;97556.53;;;12.68;76.36
49044;BME280;34860;48.066;14.124;2022-10-17T08:21:39;97552.44;;;12.73;76.27
49044;BME280;34860;48.066;14.124;2022-10-17T08:24:27;97557.97;;;12.77;76.24
49044;BME280;34860;48.066;14.124;2022-10-17T08:27:16;97551.88;;;12.82;76.17
49044;BME280;34860;48.066;14.124;2022-10-17T08:30:10;97554.06;;;12.90;76.25
49044;BME280;34860;48.066;14.124;2022-10-17T08:32:59;97547.56;;;12.97;76.02
49044;BME280;34860;48.066;14.124;2022-10-17T08:35:48;97553.41;;;13.03;75.99
49044;BME280;34860;48.066;14.124;2022-10-17T08:38:38;97548.91;;;13.09;76.09
49044;BME280;34860;48.066;14.124;2022-10-17T08:41:39;97546.19;;;13.05;76.25
49044;BME280;34860;48.066;14.124;2022-10-17T08:44:41;97544.47;;;13.12;76.27
49044;BME280;34860;48.066;14.124;2022-10-17T08:47:36;97544.28;;;13.19;76.06
49044;BME280;34860;48.066;14.124;2022-10-17T08:50:31;97543.44;;;13.22;76.17
49044;BME280;34860;48.066;14.124;2022-10-17T08:53:24;97540.19;;;13.23;76.25
49044;BME280;34860;48.066;14.124;2022-10-17T08:56:19;97548.06;;;13.29;76.04
49044;BME280;34860;48.066;14.124;2022-10-17T08:59:11;97545.63;;;13.31;76.22
49044;BME280;34860;48.066;14.124;2022-10-17T09:02:03;97544.00;;;13.33;76.11
49044;BME280;34860;48.066;14.124;2022-10-17T09:05:17;97550.72;;;13.36;76.33
49044;BME280;34860;48.066;14.124;2022-10-17T09:08:17;97544.63;;;13.41;76.14
49044;BME280;34860;48.066;14.124;2022-10-17T09:11:14;97542.13;;;13.47;76.18
49044;BME280;34860;48.066;14.124;2022-10-17T09:14:19;97553.53;;;13.52;76.10
49044;BME280;34860;48.066;14.124;2022-10-17T09:17:24;97544.81;;;13.50;75.93
49044;BME280;34860;48.066;14.124;2022-10-17T09:20:18;97538.69;;;13.55;76.10
49044;BME280;34860;48.066;14.124;2022-10-17T09:23:12;97545.00;;;13.59;76.31
49044;BME280;34860;48.066;14.124;2022-10-17T09:26:03;97550.50;;;13.63;76.14
49044;BME280;34860;48.066;14.124;2022-10-17T09:28:54;97547.59;;;13.67;76.10
49044;BME280;34860;48.066;14.124;2022-10-17T09:31:52;97544.56;;;13.61;76.27
49044;BME280;34860;48.066;14.124;2022-10-17T09:34:43;97545.00;;;13.59;76.29
49044;BME280;34860;48.066;14.124;2022-10-17T09:37:32;97539.41;;;13.59;76.35
49044;BME280;34860;48.066;14.124;2022-10-17T09:40:24;97546.03;;;13.66;76.36
49044;BME280;34860;48.066;14.124;2022-10-17T09:43:14;97546.19;;;13.75;76.00
49044;BME280;34860;48.066;14.124;2022-10-17T09:46:06;97546.81;;;13.83;76.13
49044;BME280;34860;48.066;14.124;2022-10-17T09:49:01;97546.72;;;13.86;76.07
49044;BME280;34860;48.066;14.124;2022-10-17T09:51:52;97543.84;;;13.90;76.08
49044;BME280;34860;48.066;14.124;2022-10-17T09:54:43;97553.69;;;13.94;75.93
49044;BME280;34860;48.066;14.124;2022-10-17T09:57:51;97544.28;;;14.05;75.92
49044;BME280;34860;48.066;14.124;2022-10-17T10:00:43;97554.56;;;14.08;75.78
49044;BME280;34860;48.066;14.124;2022-10-17T10:03:31;97553.34;;;14.09;75.86
49044;BME280;34860;48.066;14.124;2022-10-17T10:06:22;97552.00;;;14.13;75.98
49044;BME280;34860;48.066;14.124;2022-10-17T10:09:21;97559.91;;;14.19;75.85
49044;BME280;34860;48.066;14.124;2022-10-17T10:12:17;97560.56;;;14.23;75.91
49044;BME280;34860;48.066;14.124;2022-10-17T10:15:34;97554.25;;;14.35;75.57
49044;BME280;34860;48.066;14.124;2022-10-17T10:18:32;97553.91;;;14.33;75.71
49044;BME280;34860;48.066;14.124;2022-10-17T10:21:24;97556.19;;;14.38;75.75
49044;BME280;34860;48.066;14.124;2022-10-17T10:24:13;97558.88;;;14.42;75.69
49044;BME280;34860;48.066;14.124;2022-10-17T10:27:03;97559.75;;;14.39;75.73
49044;BME280;34860;48.066;14.124;2022-10-17T10:29:53;97560.00;;;14.44;75.86
49044;BME280;34860;48.066;14.124;2022-10-17T10:32:44;97561.19;;;14.60;75.48
49044;BME280;34860;48.066;14.124;2022-10-17T10:35:36;97566.84;;;14.73;74.99
49044;BME280;34860;48.066;14.124;2022-10-17T10:38:27;97567.09;;;14.78;74.97
49044;BME280;34860;48.066;14.124;2022-10-17T10:41:15;97566.91;;;14.85;75.02
49044;BME280;34860;48.066;14.124;2022-10-17T10:44:04;97554.47;;;14.86;75.10
49044;BME280;34860;48.066;14.124;2022-10-17T10:47:13;97563.19;;;14.88;75.26
49044;BME280;34860;48.066;14.124;2022-10-17T10:50:16;97564.63;;;14.80;75.31
49044;BME280;34860;48.066;14.124;2022-10-17T10:53:17;97561.25;;;14.73;75.89
49044;BME280;34860;48.066;14.124;2022-10-17T10:56:15;97559.56;;;14.75;76.03
49044;BME280;34860;48.066;14.124;2022-10-17T10:59:09;97561.50;;;14.78;76.19
49044;BME280;34860;48.066;14.124;2022-10-17T11:02:09;97562.25;;;14.79;76.38
49044;BME280;34860;48.066;14.124;2022-10-17T11:05:02;97560.16;;;14.83;75.84
49044;BME280;34860;48.066;14.124;2022-10-17T11:07:57;97560.72;;;14.78;76.09
49044;BME280;34860;48.066;14.124;2022-10-17T11:10:58;97555.56;;;14.76;76.48
49044;BME280;34860;48.066;14.124;2022-10-17T11:13:53;97556.25;;;14.93;76.04
49044;BME280;34860;48.066;14.124;2022-10-17T11:16:48;97558.53;;;14.98;76.05
49044;BME280;34860;48.066;14.124;2022-10-17T11:19:44;97559.59;;;14.88;76.31
49044;BME280;34860;48.066;14.124;2022-10-17T11:22:41;97551.47;;;14.94;76.38
49044;BME280;34860;48.066;14.124;2022-10-17T11:25:34;97562.88;;;14.99;76.15
49044;BME280;34860;48.066;14.124;2022-10-17T11:28:23;97555.16;;;15.03;76.09
49044;BME280;34860;48.066;14.124;2022-10-17T11:31:14;97556.72;;;15.04;76.13
49044;BME280;34860;48.066;14.124;2022-10-17T11:34:09;97561.09;;;15.05;76.12
49044;BME280;34860;48.066;14.124;2022-10-17T11:37:13;97560.38;;;14.88;76.66
49044;BME280;34860;48.066;14.124;2022-10-17T11:40:07;97561.31;;;14.85;76.92
49044;BME280;34860;48.066;14.124;2022-10-17T11:43:05;97559.28;;;14.86;76.75
49044;BME280;34860;48.066;14.124;2022-10-17T11:46:01;97561.16;;;14.76;77.10
49044;BME280;34860;48.066;14.124;2022-10-17T11:48:59;97557.88;;;14.65;77.37
49044;BME280;34860;48.066;14.124;2022-10-17T11:51:54;97555.63;;;14.73;77.12
49044;BME280;34860;48.066;14.124;2022-10-17T11:54:49;97552.22;;;14.81;77.06
49044;BME280;34860;48.066;14.124;2022-10-17T11:57:55;97554.16;;;14.97;76.54
49044;BME280;34860;48.066;14.124;2022-10-17T12:00:53;97554.94;;;15.11;76.07
49044;BME280;34860;48.066;14.124;2022-10-17T12:03:51;97554.97;;;15.36;75.53
49044;BME280;34860;48.066;14.124;2022-10-17T12:06:57;97548.03;;;15.41;75.38
49044;BME280;34860;48.066;14.124;2022-10-17T12:09:51;97538.06;;;15.40;75.36
49044;BME280;34860;48.066;14.124;2022-10-17T12:12:43;97541.31;;;15.38;75.50
49044;BME280;34860;48.066;14.124;2022-10-17T12:15:32;97532.56;;;15.36;75.86
49044;BME280;34860;48.066;14.124;2022-10-17T12:18:23;97532.56;;;15.36;76.14
49044;BME280;34860;48.066;14.124;2022-10-17T12:21:13;97531.22;;;15.28;76.14
49044;BME280;34860;48.066;14.124;2022-10-17T12:24:04;97530.66;;;15.20;76.65
49044;BME280;34860;48.066;14.124;2022-10-17T12:26:53;97528.28;;;15.19;76.58
49044;BME280;34860;48.066;14.124;2022-10-17T12:29:43;97517.91;;;15.32;76.27
49044;BME280;34860;48.066;14.124;2022-10-17T12:32:32;97521.81;;;15.48;75.98
49044;BME280;34860;48.066;14.124;2022-10-17T12:35:35;97522.34;;;15.55;75.61
49044;BME280;34860;48.066;14.124;2022-10-17T12:38:26;97518.88;;;15.64;75.44
49044;BME280;34860;48.066;14.124;2022-10-17T12:41:52;97516.63;;;15.72;75.27
49044;BME280;34860;48.066;14.124;2022-10-17T12:44:41;97519.09;;;15.70;75.29
49044;BME280;34860;48.066;14.124;2022-10-17T12:47:37;97528.06;;;15.65;75.78
49044;BME280;34860;48.066;14.124;2022-10-17T12:51:01;97529.78;;;15.62;75.95
49044;BME280;34860;48.066;14.124;2022-10-17T12:54:10;97535.47;;;15.58;76.01
49044;BME280;34860;48.066;14.124;2022-10-17T12:57:01;97537.59;;;15.67;75.79
49044;BME280;34860;48.066;14.124;2022-10-17T12:59:51;97535.72;;;15.77;75.63
49044;BME280;34860;48.066;14.124;2022-10-17T13:02:44;97527.25;;;16.03;75.15
49044;BME280;34860;48.066;14.124;2022-10-17T13:05:36;97533.84;;;16.09;75.08
49044;BME280;34860;48.066;14.124;2022-10-17T13:08:29;97528.25;;;16.09;75.13
49044;BME280;34860;48.066;14.124;2022-10-17T13:11:21;97531.28;;;16.02;75.30
49044;BME280;34860;48.066;14.124;2022-10-17T13:14:13;97532.53;;;16.01;75.58
49044;BME280;34860;48.066;14.124;2022-10-17T13:17:04;97535.34;;;16.01;75.68
49044;BME280;34860;48.066;14.124;2022-10-17T13:19:54;97539.13;;;16.07;75.57
49044;BME280;34860;48.066;14.124;2022-10-17T13:22:44;97530.13;;;16.12;75.43
49044;BME280;34860;48.066;14.124;2022-10-17T13:25:33;97532.94;;;16.12;75.53
49044;BME280;34860;48.066;14.124;2022-10-17T13:28:24;97544.47;;;16.14;75.59
49044;BME280;34860;48.066;14.124;2022-10-17T13:31:28;97538.41;;;16.15;75.65
49044;BME280;34860;48.066;14.124;2022-10-17T13:34:19;97543.13;;;16.19;75.64
49044;BME280;34860;48.066;14.124;2022-10-17T13:37:13;97536.41;;;16.16;75.78
49044;BME280;34860;48.066;14.124;2022-10-17T13:40:04;97533.25;;;16.14;75.72
49044;BME280;34860;48.066;14.124;2022-10-17T13:42:58;97532.03;;;16.15;75.81
49044;BME280;34860;48.066;14.124;2022-10-17T13:45:52;97532.50;;;16.13;75.61
49044;BME280;34860;48.066;14.124;2022-10-17T13:48:42;97531.25;;;16.14;75.54
49044;BME280;34860;48.066;14.124;2022-10-17T13:51:31;97530.47;;;16.14;75.67
49044;BME280;34860;48.066;14.124;2022-10-17T13:54:34;97532.81;;;16.15;75.84
49044;BME280;34860;48.066;14.124;2022-10-17T13:57:24;97528.59;;;16.33;75.58
49044;BME280;34860;48.066;14.124;2022-10-17T14:00:18;97540.50;;;16.37;75.29
49044;BME280;34860;48.066;14.124;2022-10-17T14:03:08;97535.34;;;16.36;75.29
49044;BME280;34860;48.066;14.124;2022-10-17T14:06:11;97548.38;;;16.29;75.72
49044;BME280;34860;48.066;14.124;2022-10-17T14:09:02;97538.19;;;16.23;75.87
49044;BME280;34860;48.066;14.124;2022-10-17T14:11:58;97531.00;;;16.22;76.03
49044;BME280;34860;48.066;14.124;2022-10-17T14:14:48;97526.63;;;16.21;75.87
49044;BME280;34860;48.066;14.124;2022-10-17T14:17:57;97533.50;;;16.20;75.98
49044;BME280;34860;48.066;14.124;2022-10-17T14:20:49;97538.97;;;16.23;76.01
49044;BME280;34860;48.066;14.124;2022-10-17T14:24:21;97533.03;;;16.21;75.92
49044;BME280;34860;48.066;14.124;2022-10-17T14:27:26;97533.34;;;16.23;76.00
49044;BME280;34860;48.066;14.124;2022-10-17T14:30:31;97534.94;;;16.24;76.00
49044;BME280;34860;48.066;14.124;2022-10-17T14:33:43;97526.97;;;16.23;75.78
49044;BME280;34860;48.066;14.124;2022-10-17T14:36:36;97532.91;;;16.25;75.83
49044;BME280;34860;48.066;14.124;2022-10-17T14:39:28;97532.00;;;16.28;75.87
49044;BME280;34860;48.066;14.124;2022-10-17T14:42:18;97528.38;;;16.27;75.94
49044;BME280;34860;48.066;14.124;2022-10-17T14:45:12;97527.16;;;16.28;75.95
49044;BME280;34860;48.066;14.124;2022-10-17T14:48:07;97531.19;;;16.27;76.02
49044;BME280;34860;48.066;14.124;2022-10-17T14:51:06;97534.66;;;16.31;75.92
49044;BME280;34860;48.066;14.124;2022-10-17T14:54:03;97534.34;;;16.29;76.09
49044;BME280;34860;48.066;14.124;2022-10-17T14:56:53;97544.13;;;16.25;76.34
49044;BME280;34860;48.066;14.124;2022-10-17T14:59:42;97532.22;;;16.21;76.45
49044;BME280;34860;48.066;14.124;2022-10-17T15:02:40;97536.75;;;16.18;76.57
49044;BME280;34860;48.066;14.124;2022-10-17T15:05:29;97536.41;;;16.16;76.64
49044;BME280;34860;48.066;14.124;2022-10-17T15:08:18;97529.16;;;16.06;76.90